createdAt,value
2018-09-08T00:02:22.492Z,21.15
2018-09-08T00:04:53.973Z,21.14
2018-09-08T00:07:29.393Z,21.09
2018-09-08T00:09:59.642Z,21.08
2018-09-08T00:12:29.468Z,21.07
2018-09-08T00:15:04.226Z,21.03
2018-09-08T00:17:38.759Z,21.00
2018-09-08T00:20:13.745Z,21.01
2018-09-08T00:22:48.812Z,21.02
2018-09-08T00:25:23.750Z,20.99
2018-09-08T00:28:05.659Z,20.91
2018-09-08T00:30:35.501Z,20.89
2018-09-08T00:33:05.452Z,20.88
2018-09-08T00:35:35.907Z,20.82
2018-09-08T00:38:05.726Z,20.81
2018-09-08T00:40:35.581Z,20.85
2018-09-08T00:43:05.606Z,20.87
2018-09-08T00:45:36.106Z,20.89
2018-09-08T00:48:06.014Z,20.91
2018-09-08T00:50:36.144Z,20.93
2018-09-08T00:53:05.976Z,20.94
2018-09-08T00:55:35.959Z,20.92
2018-09-08T00:58:05.782Z,20.91
2018-09-08T01:00:35.903Z,20.90
2018-09-08T01:03:05.745Z,20.82
2018-09-08T01:05:35.597Z,20.71
2018-09-08T01:08:05.474Z,20.67
2018-09-08T01:10:35.520Z,20.60
2018-09-08T01:13:05.521Z,20.62
2018-09-08T01:15:35.786Z,20.59
2018-09-08T01:18:06.325Z,20.54
2018-09-08T01:20:36.177Z,20.51
2018-09-08T01:23:08.540Z,20.50
2018-09-08T01:25:39.467Z,20.51
2018-09-08T01:28:09.330Z,20.45
2018-09-08T01:30:39.192Z,20.44
2018-09-08T01:33:08.950Z,20.45
2018-09-08T01:35:39.287Z,20.46
2018-09-08T01:38:09.416Z,20.48
2018-09-08T01:40:39.409Z,20.45
2018-09-08T01:43:09.162Z,20.46
2018-09-08T01:45:38.932Z,20.46
2018-09-08T01:48:08.811Z,20.48
2018-09-08T01:50:39.286Z,20.45
2018-09-08T01:53:09.440Z,20.43
2018-09-08T01:55:39.507Z,20.42
2018-09-08T01:58:09.347Z,20.41
2018-09-08T02:00:39.294Z,20.40
2018-09-08T02:03:10.505Z,20.35
2018-09-08T02:05:41.483Z,19.91
2018-09-08T02:08:12.339Z,20.34
2018-09-08T02:10:43.696Z,20.32
2018-09-08T02:13:14.893Z,20.28
2018-09-08T02:15:45.721Z,20.24
2018-09-08T02:18:16.410Z,20.19
2018-09-08T02:20:47.361Z,20.17
2018-09-08T02:23:18.796Z,20.20
2018-09-08T02:25:49.642Z,20.15
2018-09-08T02:28:20.381Z,20.15
2018-09-08T02:30:51.357Z,20.13
2018-09-08T02:33:23.322Z,20.11
2018-09-08T02:35:53.318Z,20.08
2018-09-08T02:38:24.212Z,20.05
2018-09-08T02:40:54.618Z,19.95
2018-09-08T02:43:25.422Z,19.93
2018-09-08T02:45:56.509Z,19.88
2018-09-08T02:48:27.367Z,19.83
2018-09-08T02:50:56.605Z,19.78
2018-09-08T02:53:27.300Z,19.76
2018-09-08T02:55:58.130Z,19.78
2018-09-08T02:58:27.690Z,19.68
2018-09-08T03:00:56.903Z,19.56
2018-09-08T03:03:26.635Z,19.46
2018-09-08T03:05:54.602Z,19.55
2018-09-08T03:08:22.745Z,19.41
2018-09-08T03:10:50.717Z,19.33
2018-09-08T03:13:18.745Z,19.24
2018-09-08T03:15:46.837Z,19.18
2018-09-08T03:18:14.816Z,19.15
2018-09-08T03:20:42.808Z,19.13
2018-09-08T03:23:10.766Z,19.07
2018-09-08T03:25:38.970Z,19.06
2018-09-08T03:28:06.985Z,19.05
2018-09-08T03:30:34.901Z,18.99
2018-09-08T03:33:03.045Z,18.91
2018-09-08T03:35:30.982Z,18.85
2018-09-08T03:37:58.914Z,18.83
2018-09-08T03:40:26.998Z,18.82
2018-09-08T03:42:55.017Z,18.77
2018-09-08T03:45:22.952Z,18.77
2018-09-08T03:47:50.935Z,18.75
2018-09-08T03:50:18.868Z,18.75
2018-09-08T03:52:46.938Z,18.76
2018-09-08T03:55:14.903Z,18.71
2018-09-08T03:57:42.829Z,18.64
2018-09-08T04:00:10.896Z,18.62
2018-09-08T04:02:40.863Z,18.61
2018-09-08T04:05:10.696Z,18.56
2018-09-08T04:07:40.676Z,18.53
2018-09-08T04:10:10.538Z,18.51
2018-09-08T04:12:40.608Z,18.47
2018-09-08T04:15:10.483Z,18.44
2018-09-08T04:17:40.480Z,18.38
2018-09-08T04:20:10.931Z,18.35
2018-09-08T04:22:40.708Z,18.34
2018-09-08T04:25:10.563Z,18.33
2018-09-08T04:27:40.366Z,18.32
2018-09-08T04:30:10.556Z,18.28
2018-09-08T04:32:40.437Z,18.26
2018-09-08T04:35:10.503Z,18.18
2018-09-08T04:37:40.483Z,18.11
2018-09-08T04:40:10.513Z,18.07
2018-09-08T04:42:40.688Z,18.02
2018-09-08T04:45:10.626Z,18.00
2018-09-08T04:47:40.513Z,17.99
2018-09-08T04:50:10.513Z,17.99
2018-09-08T04:52:40.715Z,17.99
2018-09-08T04:55:10.729Z,17.98
2018-09-08T04:57:40.828Z,17.97
2018-09-08T05:00:10.931Z,17.99
2018-09-08T05:02:40.778Z,17.99
2018-09-08T05:05:12.559Z,18.02
2018-09-08T05:07:42.476Z,18.04
2018-09-08T05:10:12.617Z,18.07
2018-09-08T05:12:42.684Z,18.06
2018-09-08T05:15:12.465Z,18.05
2018-09-08T05:17:42.965Z,17.98
2018-09-08T05:20:12.825Z,18.05
2018-09-08T05:22:42.765Z,18.29
2018-09-08T05:25:12.628Z,18.54
2018-09-08T05:27:42.530Z,18.74
2018-09-08T05:30:12.545Z,18.86
2018-09-08T05:32:42.893Z,18.83
2018-09-08T05:35:12.821Z,18.82
2018-09-08T05:37:42.754Z,18.93
2018-09-08T05:40:12.633Z,18.96
2018-09-08T05:42:43.500Z,19.02
2018-09-08T05:45:13.549Z,19.11
2018-09-08T05:47:43.534Z,19.05
2018-09-08T05:50:15.296Z,18.89
2018-09-08T05:52:45.521Z,18.75
2018-09-08T05:55:15.614Z,18.68
2018-09-08T05:57:45.896Z,18.55
2018-09-08T06:00:15.795Z,18.37
2018-09-08T06:02:45.530Z,18.39
2018-09-08T06:05:15.495Z,18.39
2018-09-08T06:07:45.431Z,18.33
2018-09-08T06:10:15.408Z,18.33
2018-09-08T06:12:45.667Z,18.23
2018-09-08T06:15:15.350Z,18.23
2018-09-08T06:17:45.817Z,18.22
2018-09-08T06:20:15.533Z,18.23
2018-09-08T06:22:45.329Z,18.25
2018-09-08T06:25:15.408Z,18.26
2018-09-08T06:27:45.720Z,18.14
2018-09-08T06:30:15.568Z,18.08
2018-09-08T06:32:45.513Z,18.14
2018-09-08T06:35:15.461Z,18.16
2018-09-08T06:37:45.668Z,18.10
2018-09-08T06:40:15.574Z,18.10
2018-09-08T06:42:45.536Z,18.08
2018-09-08T06:45:15.777Z,18.19
2018-09-08T06:47:46.239Z,18.27
2018-09-08T06:50:16.534Z,18.34
2018-09-08T06:52:47.124Z,18.43
2018-09-08T06:55:17.300Z,18.44
2018-09-08T06:57:47.075Z,18.39
2018-09-08T07:00:16.933Z,18.40
2018-09-08T07:02:46.874Z,18.21
2018-09-08T07:05:17.190Z,18.14
2018-09-08T07:07:46.957Z,18.00
2018-09-08T07:10:16.934Z,17.96
2018-09-08T07:12:47.173Z,17.81
2018-09-08T07:15:17.275Z,17.74
2018-09-08T07:17:47.182Z,17.76
2018-09-08T07:20:17.034Z,17.80
2018-09-08T07:22:47.234Z,17.86
2018-09-08T07:25:17.086Z,17.89
2018-09-08T07:27:46.999Z,17.93
2018-09-08T07:30:17.602Z,17.96
2018-09-08T07:32:48.577Z,17.96
2018-09-08T07:35:19.297Z,18.00
2018-09-08T07:37:50.164Z,17.98
2018-09-08T07:40:21.456Z,17.94
2018-09-08T07:42:52.360Z,17.92
2018-09-08T07:45:23.194Z,17.92
2018-09-08T07:47:54.609Z,17.94
2018-09-08T07:50:25.443Z,17.88
2018-09-08T07:52:56.586Z,17.93
2018-09-08T07:55:27.449Z,18.00
2018-09-08T07:57:58.554Z,18.00
2018-09-08T08:00:29.415Z,18.08
2018-09-08T08:03:00.550Z,18.27
2018-09-08T08:05:32.462Z,18.40
2018-09-08T08:08:02.451Z,18.60
2018-09-08T08:10:33.276Z,18.77
2018-09-08T08:13:04.346Z,18.94
2018-09-08T08:15:35.327Z,19.08
2018-09-08T08:18:06.721Z,19.24
2018-09-08T08:20:37.357Z,19.36
2018-09-08T08:23:09.905Z,19.51
2018-09-08T08:25:39.850Z,19.63
2018-09-08T08:28:10.636Z,19.75
2018-09-08T08:30:41.548Z,19.85
2018-09-08T08:33:12.623Z,20.00
2018-09-08T08:35:43.615Z,20.13
2018-09-08T08:38:14.672Z,20.28
2018-09-08T08:40:45.483Z,20.40
2018-09-08T08:43:16.455Z,20.42
2018-09-08T08:45:47.437Z,20.55
2018-09-08T08:48:18.644Z,20.86
2018-09-08T08:50:59.913Z,21.03
2018-09-08T08:53:42.188Z,21.07
2018-09-08T08:56:12.266Z,21.14
2018-09-08T08:58:42.439Z,21.21
2018-09-08T09:01:13.056Z,21.45
2018-09-08T09:03:42.813Z,21.55
2018-09-08T09:06:12.706Z,21.54
2018-09-08T09:08:43.160Z,21.71
2018-09-08T09:11:13.437Z,21.59
2018-09-08T09:13:43.264Z,21.82
2018-09-08T09:16:13.423Z,22.11
2018-09-08T09:18:54.381Z,22.20
2018-09-08T09:21:34.656Z,22.14
2018-09-08T09:24:26.004Z,22.09
2018-09-08T09:26:55.645Z,22.15
2018-09-08T09:29:25.576Z,22.20
2018-09-08T09:31:55.539Z,22.26
2018-09-08T09:34:25.604Z,22.18
2018-09-08T09:36:55.479Z,21.86
2018-09-08T09:39:25.430Z,22.03
2018-09-08T09:41:55.494Z,22.17
2018-09-08T09:44:25.499Z,22.38
2018-09-08T09:46:55.692Z,22.64
2018-09-08T09:49:25.768Z,22.86
2018-09-08T09:51:55.572Z,23.06
2018-09-08T09:54:27.904Z,23.16
2018-09-08T09:56:57.930Z,23.18
2018-09-08T09:59:27.853Z,23.05
2018-09-08T10:02:02.426Z,22.99
2018-09-08T10:04:32.628Z,22.89
2018-09-08T10:07:02.731Z,22.86
2018-09-08T10:09:32.823Z,22.77
2018-09-08T10:12:02.804Z,22.76
2018-09-08T10:14:32.783Z,22.94
2018-09-08T10:17:02.843Z,22.83
2018-09-08T10:19:39.143Z,22.79
2018-09-08T10:22:09.217Z,23.06
2018-09-08T10:24:39.252Z,23.24
2018-09-08T10:27:09.389Z,23.33
2018-09-08T10:29:39.530Z,23.16
2018-09-08T10:32:09.675Z,23.25
2018-09-08T10:34:39.648Z,23.60
2018-09-08T10:37:09.554Z,24.03
2018-09-08T10:39:39.583Z,24.15
2018-09-08T10:42:09.645Z,23.80
2018-09-08T10:44:39.541Z,23.41
2018-09-08T10:47:09.842Z,23.30
2018-09-08T10:49:39.929Z,23.20
2018-09-08T10:52:22.162Z,23.03
2018-09-08T10:54:52.275Z,23.43
2018-09-08T10:57:22.406Z,23.88
2018-09-08T10:59:53.039Z,24.37
2018-09-08T11:02:23.425Z,24.79
2018-09-08T11:04:53.514Z,25.05
2018-09-08T11:07:23.616Z,25.42
2018-09-08T11:09:53.483Z,25.69
2018-09-08T11:12:23.548Z,25.98
2018-09-08T11:14:53.660Z,26.12
2018-09-08T11:17:23.739Z,26.09
2018-09-08T11:19:53.817Z,26.00
2018-09-08T11:22:23.621Z,25.85
2018-09-08T11:24:53.481Z,25.67
2018-09-08T11:27:23.608Z,25.50
2018-09-08T11:29:53.627Z,25.56
2018-09-08T11:32:23.845Z,25.89
2018-09-08T11:34:53.937Z,25.77
2018-09-08T11:37:23.911Z,25.65
2018-09-08T11:39:53.666Z,25.14
2018-09-08T11:42:23.510Z,24.91
2018-09-08T11:44:53.496Z,24.88
2018-09-08T11:47:23.721Z,24.94
2018-09-08T11:49:53.652Z,25.18
2018-09-08T11:52:23.476Z,25.73
2018-09-08T11:54:53.610Z,25.97
2018-09-08T11:57:23.539Z,26.02
2018-09-08T11:59:53.388Z,25.55
2018-09-08T12:02:23.705Z,25.39
2018-09-08T12:04:53.538Z,25.77
2018-09-08T12:07:23.509Z,26.25
2018-09-08T12:09:53.953Z,26.52
2018-09-08T12:12:23.750Z,26.80
2018-09-08T12:14:54.126Z,26.83
2018-09-08T12:17:24.273Z,27.32
2018-09-08T12:19:54.624Z,27.29
2018-09-08T12:22:24.662Z,26.78
2018-09-08T12:24:54.937Z,26.95
2018-09-08T12:27:25.133Z,26.92
2018-09-08T12:30:03.271Z,26.68
2018-09-08T12:32:33.107Z,26.28
2018-09-08T12:35:03.677Z,26.26
2018-09-08T12:37:33.434Z,25.88
2018-09-08T12:40:03.561Z,25.50
2018-09-08T12:42:33.801Z,25.78
2018-09-08T12:45:04.785Z,26.43
2018-09-08T12:47:35.517Z,26.94
2018-09-08T12:50:05.783Z,26.90
2018-09-08T12:52:36.022Z,26.83
2018-09-08T12:55:06.516Z,26.85
2018-09-08T12:57:36.621Z,26.72
2018-09-08T13:00:06.842Z,26.81
2018-09-08T13:02:36.539Z,26.76
2018-09-08T13:05:06.433Z,26.51
2018-09-08T13:07:36.339Z,26.49
2018-09-08T13:10:06.337Z,26.36
2018-09-08T13:12:36.241Z,26.58
2018-09-08T13:15:06.929Z,26.70
2018-09-08T13:17:37.010Z,27.07
2018-09-08T13:20:07.033Z,27.38
2018-09-08T13:22:36.883Z,27.68
2018-09-08T13:25:07.356Z,27.62
2018-09-08T13:27:37.124Z,27.63
2018-09-08T13:30:07.743Z,27.85
2018-09-08T13:32:38.967Z,28.03
2018-09-08T13:35:09.035Z,28.15
2018-09-08T13:37:39.822Z,28.42
2018-09-08T13:40:09.603Z,28.51
2018-09-08T13:42:40.554Z,28.52
2018-09-08T13:45:11.311Z,28.54
2018-09-08T13:47:42.356Z,28.77
2018-09-08T13:50:13.154Z,28.70
2018-09-08T13:52:44.794Z,28.82
2018-09-08T13:55:15.629Z,28.83
2018-09-08T13:57:46.662Z,28.76
2018-09-08T14:00:17.495Z,28.35
2018-09-08T14:02:48.522Z,28.78
2018-09-08T14:05:19.309Z,29.11
2018-09-08T14:07:53.033Z,29.26
2018-09-08T14:10:22.940Z,29.21
2018-09-08T14:12:52.739Z,29.05
2018-09-08T14:15:23.376Z,29.03
2018-09-08T14:17:55.030Z,28.89
2018-09-08T14:20:25.959Z,28.75
2018-09-08T14:22:56.789Z,28.61
2018-09-08T14:25:27.576Z,28.70
2018-09-08T14:27:58.431Z,28.60
2018-09-08T14:30:29.343Z,28.48
2018-09-08T14:33:00.438Z,28.13
2018-09-08T14:35:31.442Z,28.15
2018-09-08T14:38:02.260Z,28.29
2018-09-08T14:40:33.449Z,28.37
2018-09-08T14:43:04.205Z,28.55
2018-09-08T14:45:35.598Z,27.90
2018-09-08T14:51:03.878Z,27.87
2018-09-08T14:53:34.510Z,27.96
2018-09-08T14:56:04.699Z,27.70
2018-09-08T14:58:34.516Z,27.47
2018-09-08T15:01:04.607Z,27.40
2018-09-08T15:03:34.521Z,27.21
2018-09-08T15:06:15.501Z,26.96
2018-09-08T15:08:45.716Z,26.92
2018-09-08T15:11:15.522Z,26.98
2018-09-08T15:13:45.556Z,26.64
2018-09-08T15:16:15.520Z,26.76
2018-09-08T15:18:45.415Z,26.70
2018-09-08T15:21:15.608Z,26.55
2018-09-08T15:23:45.460Z,26.45
2018-09-08T15:26:15.425Z,26.43
2018-09-08T15:28:45.589Z,26.33
2018-09-08T15:31:15.443Z,26.35
2018-09-08T15:33:46.062Z,26.30
2018-09-08T15:36:16.056Z,26.31
2018-09-08T15:38:45.894Z,26.29
2018-09-08T15:41:15.851Z,26.26
2018-09-08T15:43:46.053Z,26.22
2018-09-08T15:46:16.158Z,25.94
2018-09-08T15:48:46.004Z,25.85
2018-09-08T15:51:16.390Z,25.83
2018-09-08T15:53:46.909Z,25.71
2018-09-08T15:56:17.529Z,25.50
2018-09-08T15:58:47.547Z,25.56
2018-09-08T16:01:18.055Z,25.52
2018-09-08T16:03:48.247Z,25.67
2018-09-08T16:06:18.009Z,25.75
2018-09-08T16:08:47.970Z,25.85
2018-09-08T16:11:17.914Z,25.88
2018-09-08T16:13:48.415Z,25.92
2018-09-08T16:16:18.203Z,25.93
2018-09-08T16:18:48.078Z,25.85
2018-09-08T16:21:18.133Z,25.79
2018-09-08T16:23:47.926Z,25.74
2018-09-08T16:26:18.073Z,25.68
2018-09-08T16:28:48.319Z,25.68
2018-09-08T16:31:18.321Z,25.67
2018-09-08T16:33:48.134Z,25.65
2018-09-08T16:36:18.477Z,25.64
2018-09-08T16:38:49.302Z,25.60
2018-09-08T16:41:20.237Z,25.53
2018-09-08T16:43:51.525Z,25.42
2018-09-08T16:46:22.229Z,25.29
2018-09-08T16:48:53.314Z,25.17
2018-09-08T16:51:24.229Z,25.12
2018-09-08T16:53:55.294Z,25.05
2018-09-08T16:56:26.288Z,25.00
2018-09-08T16:58:57.357Z,24.92
2018-09-08T17:01:28.567Z,24.85
2018-09-08T17:03:58.405Z,24.79
2018-09-08T17:06:29.124Z,24.75
2018-09-08T17:09:00.756Z,24.67
2018-09-08T17:11:31.377Z,24.60
2018-09-08T17:14:03.297Z,24.53
2018-09-08T17:16:34.239Z,24.48
2018-09-08T17:19:04.300Z,24.42
2018-09-08T17:21:35.100Z,24.38
2018-09-08T17:24:06.708Z,24.34
2018-09-08T17:26:37.536Z,24.26
2018-09-08T17:29:08.589Z,24.18
2018-09-08T17:31:40.556Z,24.13
2018-09-08T17:34:11.085Z,24.02
2018-09-08T17:36:41.568Z,23.99
2018-09-08T17:39:13.801Z,23.93
2018-09-08T17:41:45.894Z,23.91
2018-09-08T17:44:16.191Z,23.83
2018-09-08T17:46:45.935Z,23.70
2018-09-08T17:49:16.621Z,23.63
2018-09-08T17:51:47.296Z,23.55
2018-09-08T17:54:18.405Z,23.46
2018-09-08T17:56:49.309Z,23.38
2018-09-08T17:59:20.726Z,23.30
2018-09-08T18:01:51.639Z,23.22
2018-09-08T18:04:22.691Z,23.16
2018-09-08T18:06:53.724Z,23.00
2018-09-08T18:09:28.625Z,23.04
2018-09-08T18:12:04.624Z,22.93
2018-09-08T18:14:35.332Z,22.81
2018-09-08T18:17:05.527Z,22.74
2018-09-08T18:19:35.497Z,22.67
2018-09-08T18:22:05.294Z,22.64
2018-09-08T18:24:35.027Z,22.60
2018-09-08T18:27:05.249Z,22.52
2018-09-08T18:29:35.177Z,22.42
2018-09-08T18:32:05.352Z,22.41
2018-09-08T18:34:35.037Z,22.36
2018-09-08T18:37:04.875Z,22.34
2018-09-08T18:39:35.596Z,22.31
2018-09-08T18:42:06.409Z,22.29
2018-09-08T18:44:37.305Z,22.24
2018-09-08T18:47:08.205Z,22.16
2018-09-08T18:49:39.536Z,22.12
2018-09-08T18:52:10.543Z,22.10
2018-09-08T18:54:41.493Z,22.09
2018-09-08T18:57:12.540Z,22.03
2018-09-08T18:59:43.482Z,22.04
2018-09-08T19:02:15.462Z,21.98
2018-09-08T19:04:45.736Z,21.93
2018-09-08T19:07:16.461Z,21.90
2018-09-08T19:09:51.358Z,21.80
2018-09-08T19:12:21.079Z,21.76
2018-09-08T19:14:56.100Z,21.71
2018-09-08T19:17:25.821Z,21.64
2018-09-08T19:20:01.120Z,21.62
2018-09-08T19:22:31.241Z,21.59
2018-09-08T19:25:01.041Z,21.56
2018-09-08T19:27:31.249Z,21.55
2018-09-08T19:30:02.828Z,21.46
2018-09-08T19:32:33.125Z,21.42
2018-09-08T19:35:07.710Z,21.44
2018-09-08T19:37:38.578Z,21.42
2018-09-08T19:40:14.448Z,21.18
2018-09-08T19:42:44.693Z,20.93
2018-09-08T19:45:14.956Z,20.72
2018-09-08T19:47:50.061Z,20.53
2018-09-08T19:50:19.882Z,20.44
2018-09-08T19:52:55.506Z,20.32
2018-09-08T19:55:25.505Z,20.22
2018-09-08T19:58:00.717Z,20.11
2018-09-08T20:00:30.496Z,20.02
2018-09-08T20:03:00.505Z,19.96
2018-09-08T20:05:30.594Z,19.85
2018-09-08T20:08:00.774Z,19.73
2018-09-08T20:10:30.762Z,19.64
2018-09-08T20:13:00.651Z,19.58
2018-09-08T20:15:30.629Z,19.45
2018-09-08T20:18:00.768Z,19.39
2018-09-08T20:20:30.655Z,19.30
2018-09-08T20:23:01.209Z,19.25
2018-09-08T20:25:31.335Z,19.19
2018-09-08T20:28:01.273Z,19.12
2018-09-08T20:30:31.588Z,19.07
2018-09-08T20:33:01.497Z,18.99
2018-09-08T20:35:31.425Z,18.94
2018-09-08T20:38:01.246Z,18.88
2018-09-08T20:40:31.476Z,18.81
2018-09-08T20:43:01.298Z,18.74
2018-09-08T20:45:31.141Z,18.68
2018-09-08T20:48:01.088Z,18.61
2018-09-08T20:50:31.328Z,18.55
2018-09-08T20:53:03.548Z,18.48
2018-09-08T20:55:35.946Z,18.45
2018-09-08T20:58:06.563Z,18.42
2018-09-08T21:00:36.382Z,18.37
2018-09-08T21:03:06.547Z,18.32
2018-09-08T21:05:36.403Z,18.27
2018-09-08T21:08:06.211Z,18.21
2018-09-08T21:10:36.203Z,18.17
2018-09-08T21:13:06.027Z,18.10
2018-09-08T21:15:36.676Z,18.05
2018-09-08T21:18:07.560Z,18.02
2018-09-08T21:20:38.386Z,17.98
2018-09-08T21:23:09.458Z,17.93
2018-09-08T21:25:40.265Z,17.89
2018-09-08T21:28:10.837Z,17.84
2018-09-08T21:30:41.758Z,17.80
2018-09-08T21:33:12.478Z,17.74
2018-09-08T21:35:43.581Z,17.67
2018-09-08T21:38:14.938Z,17.63
2018-09-08T21:40:46.863Z,17.53
2018-09-08T21:43:16.683Z,17.53
2018-09-08T21:45:47.651Z,17.51
2018-09-08T21:48:18.617Z,17.46
2018-09-08T21:50:49.510Z,17.40
2018-09-08T21:53:20.540Z,17.36
2018-09-08T21:55:51.426Z,17.34
2018-09-08T21:58:22.730Z,17.30
2018-09-08T22:00:56.237Z,17.26
2018-09-08T22:03:28.071Z,17.20
2018-09-08T22:05:58.384Z,17.19
2018-09-08T22:08:31.902Z,17.14
2018-09-08T22:11:49.736Z,17.13
2018-09-08T22:14:19.972Z,17.08
2018-09-08T22:16:49.758Z,17.05
2018-09-08T22:19:19.719Z,17.01
2018-09-08T22:21:49.577Z,16.93
2018-09-08T22:24:19.557Z,16.89
2018-09-08T22:26:49.635Z,16.85
2018-09-08T22:29:19.468Z,16.82
2018-09-08T22:31:49.581Z,16.79
2018-09-08T22:34:19.794Z,16.75
2018-09-08T22:36:49.725Z,16.72
2018-09-08T22:39:19.633Z,16.64
2018-09-08T22:41:50.077Z,16.61
2018-09-08T22:44:19.869Z,16.56
2018-09-08T22:46:49.764Z,16.54
2018-09-08T22:49:19.576Z,16.51
2018-09-08T22:51:49.561Z,16.46
2018-09-08T22:54:19.593Z,16.43
2018-09-08T22:56:49.746Z,16.38
2018-09-08T22:59:20.063Z,16.31
2018-09-08T23:01:49.955Z,16.28
2018-09-08T23:04:19.767Z,16.25
2018-09-08T23:06:49.948Z,16.21
2018-09-08T23:09:19.798Z,16.16
2018-09-08T23:11:49.591Z,16.09
2018-09-08T23:14:19.613Z,16.06
2018-09-08T23:16:49.604Z,16.02
2018-09-08T23:19:19.886Z,15.99
2018-09-08T23:21:49.729Z,15.96
2018-09-08T23:24:19.594Z,15.88
2018-09-08T23:26:54.030Z,15.90
2018-09-08T23:29:23.881Z,15.87
2018-09-08T23:31:53.887Z,15.83
2018-09-08T23:34:23.672Z,15.79
2018-09-08T23:36:53.943Z,15.77
2018-09-08T23:39:23.760Z,15.75
2018-09-08T23:41:53.523Z,15.73
2018-09-08T23:44:24.182Z,15.69
2018-09-08T23:46:54.266Z,15.65
2018-09-08T23:49:24.438Z,15.62
2018-09-08T23:51:54.472Z,15.60
2018-09-08T23:54:24.675Z,15.56
